sensor_id;sensor_type;location;lat;lon;timestamp;temperature;humidity
21001;DHT22;10658;50.920;12.238;2023-12-14T00:01:24;3.90;99.90
21001;DHT22;10658;50.920;12.238;2023-12-14T00:05:25;3.90;99.90
21001;DHT22;10658;50.920;12.238;2023-12-14T00:09:26;3.90;99.90
21001;DHT22;10658;50.920;12.238;2023-12-14T00:13:26;3.80;99.90
21001;DHT22;10658;50.920;12.238;2023-12-14T00:17:27;3.70;99.90
21001;DHT22;10658;50.920;12.238;2023-12-14T00:21:28;3.60;99.90
21001;DHT22;10658;50.920;12.238;2023-12-14T00:25:29;3.60;99.90
21001;DHT22;10658;50.920;12.238;2023-12-14T00:29:30;3.70;99.90
21001;DHT22;10658;50.920;12.238;2023-12-14T00:33:30;3.70;99.90
21001;DHT22;10658;50.920;12.238;2023-12-14T00:37:31;3.70;99.90
21001;DHT22;10658;50.920;12.238;2023-12-14T00:41:32;3.80;99.90
21001;DHT22;10658;50.920;12.238;2023-12-14T00:45:33;3.90;99.90
21001;DHT22;10658;50.920;12.238;2023-12-14T00:49:34;4.00;99.90
21001;DHT22;10658;50.920;12.238;2023-12-14T00:53:35;4.00;99.90
21001;DHT22;10658;50.920;12.238;2023-12-14T00:57:35;4.10;99.90
21001;DHT22;10658;50.920;12.238;2023-12-14T01:01:37;4.10;99.90
21001;DHT22;10658;50.920;12.238;2023-12-14T01:05:37;4.20;99.90
21001;DHT22;10658;50.920;12.238;2023-12-14T01:09:38;4.20;99.90
21001;DHT22;10658;50.920;12.238;2023-12-14T01:13:39;4.30;99.90
21001;DHT22;10658;50.920;12.238;2023-12-14T01:17:40;4.40;99.90
21001;DHT22;10658;50.920;12.238;2023-12-14T01:21:41;4.50;99.90
21001;DHT22;10658;50.920;12.238;2023-12-14T01:25:41;4.60;99.90
21001;DHT22;10658;50.920;12.238;2023-12-14T01:29:43;4.80;99.90
21001;DHT22;10658;50.920;12.238;2023-12-14T01:33:43;4.80;99.90
21001;DHT22;10658;50.920;12.238;2023-12-14T01:37:46;4.90;99.90
21001;DHT22;10658;50.920;12.238;2023-12-14T01:41:47;5.00;99.90
21001;DHT22;10658;50.920;12.238;2023-12-14T01:45:49;5.00;99.90
21001;DHT22;10658;50.920;12.238;2023-12-14T01:49:50;5.10;99.90
21001;DHT22;10658;50.920;12.238;2023-12-14T01:53:51;5.20;99.90
21001;DHT22;10658;50.920;12.238;2023-12-14T01:57:52;5.30;99.90
21001;DHT22;10658;50.920;12.238;2023-12-14T02:01:54;5.20;99.90
21001;DHT22;10658;50.920;12.238;2023-12-14T02:05:56;5.30;99.90
21001;DHT22;10658;50.920;12.238;2023-12-14T02:09:58;5.50;99.90
21001;DHT22;10658;50.920;12.238;2023-12-14T02:14:03;5.70;99.90
21001;DHT22;10658;50.920;12.238;2023-12-14T02:18:04;5.80;99.90
21001;DHT22;10658;50.920;12.238;2023-12-14T02:22:05;5.80;99.90
21001;DHT22;10658;50.920;12.238;2023-12-14T02:26:06;5.90;99.90
21001;DHT22;10658;50.920;12.238;2023-12-14T02:30:07;6.00;99.90
21001;DHT22;10658;50.920;12.238;2023-12-14T02:34:08;6.10;99.90
21001;DHT22;10658;50.920;12.238;2023-12-14T02:38:10;6.20;99.90
21001;DHT22;10658;50.920;12.238;2023-12-14T02:42:10;6.20;99.90
21001;DHT22;10658;50.920;12.238;2023-12-14T02:46:11;6.20;99.90
21001;DHT22;10658;50.920;12.238;2023-12-14T02:50:16;6.20;99.90
21001;DHT22;10658;50.920;12.238;2023-12-14T02:54:16;6.30;99.90
21001;DHT22;10658;50.920;12.238;2023-12-14T02:58:18;6.30;99.90
21001;DHT22;10658;50.920;12.238;2023-12-14T03:02:19;6.30;99.90
21001;DHT22;10658;50.920;12.238;2023-12-14T03:06:21;6.30;99.90
21001;DHT22;10658;50.920;12.238;2023-12-14T03:10:22;6.20;99.90
21001;DHT22;10658;50.920;12.238;2023-12-14T03:14:23;6.20;99.90
21001;DHT22;10658;50.920;12.238;2023-12-14T03:18:24;6.20;99.90
21001;DHT22;10658;50.920;12.238;2023-12-14T03:22:25;6.20;99.90
21001;DHT22;10658;50.920;12.238;2023-12-14T03:26:26;6.20;99.90
21001;DHT22;10658;50.920;12.238;2023-12-14T03:30:26;6.20;99.90
21001;DHT22;10658;50.920;12.238;2023-12-14T03:34:27;6.10;99.90
21001;DHT22;10658;50.920;12.238;2023-12-14T03:38:28;6.20;99.90
21001;DHT22;10658;50.920;12.238;2023-12-14T03:42:29;6.20;99.90
21001;DHT22;10658;50.920;12.238;2023-12-14T03:46:30;6.10;99.90
21001;DHT22;10658;50.920;12.238;2023-12-14T03:50:31;6.10;99.90
21001;DHT22;10658;50.920;12.238;2023-12-14T03:54:33;6.10;99.90
21001;DHT22;10658;50.920;12.238;2023-12-14T03:58:34;6.10;99.90
21001;DHT22;10658;50.920;12.238;2023-12-14T04:02:35;6.10;99.90
21001;DHT22;10658;50.920;12.238;2023-12-14T04:06:35;6.00;99.90
21001;DHT22;10658;50.920;12.238;2023-12-14T04:10:36;6.00;99.90
21001;DHT22;10658;50.920;12.238;2023-12-14T04:14:37;5.90;99.90
21001;DHT22;10658;50.920;12.238;2023-12-14T04:18:38;5.90;99.90
21001;DHT22;10658;50.920;12.238;2023-12-14T04:22:40;5.80;99.90
21001;DHT22;10658;50.920;12.238;2023-12-14T04:26:40;5.80;99.90
21001;DHT22;10658;50.920;12.238;2023-12-14T04:30:42;5.70;99.90
21001;DHT22;10658;50.920;12.238;2023-12-14T04:34:43;5.80;99.90
21001;DHT22;10658;50.920;12.238;2023-12-14T04:38:44;5.70;99.90
21001;DHT22;10658;50.920;12.238;2023-12-14T04:42:46;5.70;99.90
21001;DHT22;10658;50.920;12.238;2023-12-14T04:46:48;5.70;99.90
21001;DHT22;10658;50.920;12.238;2023-12-14T04:50:49;5.70;99.90
21001;DHT22;10658;50.920;12.238;2023-12-14T04:54:49;5.60;99.90
21001;DHT22;10658;50.920;12.238;2023-12-14T04:58:50;5.60;99.90
21001;DHT22;10658;50.920;12.238;2023-12-14T05:02:51;5.60;99.90
21001;DHT22;10658;50.920;12.238;2023-12-14T05:06:52;5.60;99.90
21001;DHT22;10658;50.920;12.238;2023-12-14T05:10:53;5.60;99.90
21001;DHT22;10658;50.920;12.238;2023-12-14T05:14:53;5.60;99.90
21001;DHT22;10658;50.920;12.238;2023-12-14T05:18:54;5.60;99.90
21001;DHT22;10658;50.920;12.238;2023-12-14T05:22:55;5.50;99.90
21001;DHT22;10658;50.920;12.238;2023-12-14T05:26:56;5.50;99.90
21001;DHT22;10658;50.920;12.238;2023-12-14T05:30:57;5.50;99.90
21001;DHT22;10658;50.920;12.238;2023-12-14T05:34:58;5.50;99.90
21001;DHT22;10658;50.920;12.238;2023-12-14T05:39:00;5.40;99.90
21001;DHT22;10658;50.920;12.238;2023-12-14T05:43:00;5.40;99.90
21001;DHT22;10658;50.920;12.238;2023-12-14T05:47:01;5.40;99.90
21001;DHT22;10658;50.920;12.238;2023-12-14T05:51:02;5.40;99.90
21001;DHT22;10658;50.920;12.238;2023-12-14T05:55:04;5.40;99.90
21001;DHT22;10658;50.920;12.238;2023-12-14T05:59:05;5.40;99.90
21001;DHT22;10658;50.920;12.238;2023-12-14T06:03:06;5.30;99.90
21001;DHT22;10658;50.920;12.238;2023-12-14T06:07:07;5.30;99.90
21001;DHT22;10658;50.920;12.238;2023-12-14T06:11:08;5.30;99.90
21001;DHT22;10658;50.920;12.238;2023-12-14T06:15:09;5.30;99.90
21001;DHT22;10658;50.920;12.238;2023-12-14T06:19:11;5.30;99.90
21001;DHT22;10658;50.920;12.238;2023-12-14T06:23:12;5.30;99.90
21001;DHT22;10658;50.920;12.238;2023-12-14T06:27:13;5.20;99.90
21001;DHT22;10658;50.920;12.238;2023-12-14T06:31:15;5.20;99.90
21001;DHT22;10658;50.920;12.238;2023-12-14T06:35:16;5.10;99.90
21001;DHT22;10658;50.920;12.238;2023-12-14T06:39:17;5.10;99.90
21001;DHT22;10658;50.920;12.238;2023-12-14T06:43:26;5.00;99.90
21001;DHT22;10658;50.920;12.238;2023-12-14T06:47:27;5.10;99.90
21001;DHT22;10658;50.920;12.238;2023-12-14T06:51:28;5.00;99.90
21001;DHT22;10658;50.920;12.238;2023-12-14T06:55:29;5.00;99.90
21001;DHT22;10658;50.920;12.238;2023-12-14T06:59:30;5.00;99.90
21001;DHT22;10658;50.920;12.238;2023-12-14T07:03:31;5.10;99.90
21001;DHT22;10658;50.920;12.238;2023-12-14T07:07:32;5.00;99.90
21001;DHT22;10658;50.920;12.238;2023-12-14T07:11:33;5.00;99.90
21001;DHT22;10658;50.920;12.238;2023-12-14T07:15:34;5.00;99.90
21001;DHT22;10658;50.920;12.238;2023-12-14T07:19:35;5.00;99.90
21001;DHT22;10658;50.920;12.238;2023-12-14T07:23:36;5.00;99.90
21001;DHT22;10658;50.920;12.238;2023-12-14T07:27:37;4.90;99.90
21001;DHT22;10658;50.920;12.238;2023-12-14T07:31:38;5.00;99.90
21001;DHT22;10658;50.920;12.238;2023-12-14T07:35:39;4.90;99.90
21001;DHT22;10658;50.920;12.238;2023-12-14T07:39:40;4.90;99.90
21001;DHT22;10658;50.920;12.238;2023-12-14T07:43:41;4.80;99.90
21001;DHT22;10658;50.920;12.238;2023-12-14T07:47:41;4.90;99.90
21001;DHT22;10658;50.920;12.238;2023-12-14T07:51:43;4.80;99.90
21001;DHT22;10658;50.920;12.238;2023-12-14T07:55:43;4.80;99.90
21001;DHT22;10658;50.920;12.238;2023-12-14T07:59:44;4.90;99.90
21001;DHT22;10658;50.920;12.238;2023-12-14T08:03:46;4.90;99.90
21001;DHT22;10658;50.920;12.238;2023-12-14T08:07:47;4.80;99.90
21001;DHT22;10658;50.920;12.238;2023-12-14T08:11:48;4.90;99.90
21001;DHT22;10658;50.920;12.238;2023-12-14T08:15:51;4.90;99.90
21001;DHT22;10658;50.920;12.238;2023-12-14T08:19:52;4.80;99.90
21001;DHT22;10658;50.920;12.238;2023-12-14T08:23:53;4.80;99.90
21001;DHT22;10658;50.920;12.238;2023-12-14T08:27:54;4.80;99.90
21001;DHT22;10658;50.920;12.238;2023-12-14T08:31:55;4.70;99.90
21001;DHT22;10658;50.920;12.238;2023-12-14T08:35:57;4.60;99.90
21001;DHT22;10658;50.920;12.238;2023-12-14T08:39:59;4.70;99.90
21001;DHT22;10658;50.920;12.238;2023-12-14T08:43:59;4.70;99.90
21001;DHT22;10658;50.920;12.238;2023-12-14T08:48:00;4.60;99.90
21001;DHT22;10658;50.920;12.238;2023-12-14T08:52:01;4.60;99.90
21001;DHT22;10658;50.920;12.238;2023-12-14T08:56:03;4.60;99.90
21001;DHT22;10658;50.920;12.238;2023-12-14T09:00:04;4.60;99.90
21001;DHT22;10658;50.920;12.238;2023-12-14T09:04:05;4.60;99.90
21001;DHT22;10658;50.920;12.238;2023-12-14T09:08:06;4.60;99.90
21001;DHT22;10658;50.920;12.238;2023-12-14T09:12:07;4.50;99.90
21001;DHT22;10658;50.920;12.238;2023-12-14T09:16:08;4.50;99.90
21001;DHT22;10658;50.920;12.238;2023-12-14T09:20:09;4.60;99.90
21001;DHT22;10658;50.920;12.238;2023-12-14T09:24:11;4.60;99.90
21001;DHT22;10658;50.920;12.238;2023-12-14T09:28:12;4.50;99.90
21001;DHT22;10658;50.920;12.238;2023-12-14T09:32:13;4.70;99.90
21001;DHT22;10658;50.920;12.238;2023-12-14T09:36:14;4.70;99.90
21001;DHT22;10658;50.920;12.238;2023-12-14T09:40:15;4.70;99.90
21001;DHT22;10658;50.920;12.238;2023-12-14T09:44:17;4.70;99.90
21001;DHT22;10658;50.920;12.238;2023-12-14T09:48:19;4.80;99.90
21001;DHT22;10658;50.920;12.238;2023-12-14T09:52:21;4.80;99.90
21001;DHT22;10658;50.920;12.238;2023-12-14T09:56:22;4.80;99.90
21001;DHT22;10658;50.920;12.238;2023-12-14T10:00:39;4.70;99.90
21001;DHT22;10658;50.920;12.238;2023-12-14T10:04:43;4.70;99.90
21001;DHT22;10658;50.920;12.238;2023-12-14T10:08:54;4.60;99.90
21001;DHT22;10658;50.920;12.238;2023-12-14T10:12:56;4.50;99.90
21001;DHT22;10658;50.920;12.238;2023-12-14T10:16:58;4.50;99.90
21001;DHT22;10658;50.920;12.238;2023-12-14T10:20:59;4.50;99.90
21001;DHT22;10658;50.920;12.238;2023-12-14T10:25:00;4.50;99.90
21001;DHT22;10658;50.920;12.238;2023-12-14T10:29:01;4.50;99.90
21001;DHT22;10658;50.920;12.238;2023-12-14T10:33:05;4.60;99.90
21001;DHT22;10658;50.920;12.238;2023-12-14T10:37:06;4.60;99.90
21001;DHT22;10658;50.920;12.238;2023-12-14T10:41:08;4.70;99.90
21001;DHT22;10658;50.920;12.238;2023-12-14T10:45:13;4.80;99.90
21001;DHT22;10658;50.920;12.238;2023-12-14T10:49:17;4.90;99.90
21001;DHT22;10658;50.920;12.238;2023-12-14T10:53:18;4.90;99.90
21001;DHT22;10658;50.920;12.238;2023-12-14T10:57:20;4.90;99.90
21001;DHT22;10658;50.920;12.238;2023-12-14T11:01:22;4.80;99.90
21001;DHT22;10658;50.920;12.238;2023-12-14T11:05:24;4.70;99.90
21001;DHT22;10658;50.920;12.238;2023-12-14T11:09:30;4.70;99.90
21001;DHT22;10658;50.920;12.238;2023-12-14T11:13:32;4.70;99.90
21001;DHT22;10658;50.920;12.238;2023-12-14T11:17:33;4.60;99.90
21001;DHT22;10658;50.920;12.238;2023-12-14T11:21:36;4.50;99.90
21001;DHT22;10658;50.920;12.238;2023-12-14T11:25:37;4.50;99.90
21001;DHT22;10658;50.920;12.238;2023-12-14T11:29:39;4.40;99.90
21001;DHT22;10658;50.920;12.238;2023-12-14T11:33:43;4.40;99.90
21001;DHT22;10658;50.920;12.238;2023-12-14T11:37:44;4.40;99.90
21001;DHT22;10658;50.920;12.238;2023-12-14T11:42:02;4.40;99.90
21001;DHT22;10658;50.920;12.238;2023-12-14T11:46:03;4.30;99.90
21001;DHT22;10658;50.920;12.238;2023-12-14T11:50:05;4.40;99.90
21001;DHT22;10658;50.920;12.238;2023-12-14T11:54:06;4.30;99.90
21001;DHT22;10658;50.920;12.238;2023-12-14T11:58:09;4.30;99.90
21001;DHT22;10658;50.920;12.238;2023-12-14T12:02:12;4.30;99.90
21001;DHT22;10658;50.920;12.238;2023-12-14T12:06:39;4.30;99.90
21001;DHT22;10658;50.920;12.238;2023-12-14T12:10:41;4.30;99.90
21001;DHT22;10658;50.920;12.238;2023-12-14T12:14:42;4.30;99.90
21001;DHT22;10658;50.920;12.238;2023-12-14T12:18:43;4.30;99.90
21001;DHT22;10658;50.920;12.238;2023-12-14T12:22:44;4.30;99.90
21001;DHT22;10658;50.920;12.238;2023-12-14T12:26:45;4.40;99.90
21001;DHT22;10658;50.920;12.238;2023-12-14T12:30:46;4.30;99.90
21001;DHT22;10658;50.920;12.238;2023-12-14T12:34:47;4.30;99.90
21001;DHT22;10658;50.920;12.238;2023-12-14T12:38:48;4.30;99.90
21001;DHT22;10658;50.920;12.238;2023-12-14T12:42:49;4.40;99.90
21001;DHT22;10658;50.920;12.238;2023-12-14T12:46:50;4.40;99.90
21001;DHT22;10658;50.920;12.238;2023-12-14T12:50:59;4.50;99.90
21001;DHT22;10658;50.920;12.238;2023-12-14T12:55:05;4.40;99.90
21001;DHT22;10658;50.920;12.238;2023-12-14T12:59:07;4.40;99.90
21001;DHT22;10658;50.920;12.238;2023-12-14T13:03:08;4.50;99.90
21001;DHT22;10658;50.920;12.238;2023-12-14T13:07:10;4.40;99.90
21001;DHT22;10658;50.920;12.238;2023-12-14T13:11:12;4.50;99.90
21001;DHT22;10658;50.920;12.238;2023-12-14T13:15:14;4.50;99.90
21001;DHT22;10658;50.920;12.238;2023-12-14T13:19:15;4.60;99.90
21001;DHT22;10658;50.920;12.238;2023-12-14T13:23:16;4.50;99.90
21001;DHT22;10658;50.920;12.238;2023-12-14T13:27:17;4.50;99.90
21001;DHT22;10658;50.920;12.238;2023-12-14T13:31:18;4.60;99.90
21001;DHT22;10658;50.920;12.238;2023-12-14T13:35:20;4.50;99.90
21001;DHT22;10658;50.920;12.238;2023-12-14T13:39:23;4.40;99.90
21001;DHT22;10658;50.920;12.238;2023-12-14T13:43:24;4.30;99.90
21001;DHT22;10658;50.920;12.238;2023-12-14T13:47:25;4.30;99.90
21001;DHT22;10658;50.920;12.238;2023-12-14T13:51:28;4.30;99.90
21001;DHT22;10658;50.920;12.238;2023-12-14T13:55:30;4.30;99.90
21001;DHT22;10658;50.920;12.238;2023-12-14T13:59:31;4.20;99.90
21001;DHT22;10658;50.920;12.238;2023-12-14T14:03:32;4.30;99.90
21001;DHT22;10658;50.920;12.238;2023-12-14T14:07:36;4.30;99.90
21001;DHT22;10658;50.920;12.238;2023-12-14T14:11:37;4.30;99.90
21001;DHT22;10658;50.920;12.238;2023-12-14T14:15:38;4.20;99.90
21001;DHT22;10658;50.920;12.238;2023-12-14T14:19:40;4.20;99.90
21001;DHT22;10658;50.920;12.238;2023-12-14T14:23:42;4.20;99.90
21001;DHT22;10658;50.920;12.238;2023-12-14T14:27:44;4.20;99.90
21001;DHT22;10658;50.920;12.238;2023-12-14T14:31:47;4.20;99.90
21001;DHT22;10658;50.920;12.238;2023-12-14T14:35:49;4.20;99.90
21001;DHT22;10658;50.920;12.238;2023-12-14T14:39:51;4.10;99.90
21001;DHT22;10658;50.920;12.238;2023-12-14T14:43:55;4.10;99.90
21001;DHT22;10658;50.920;12.238;2023-12-14T14:48:00;4.10;99.90
21001;DHT22;10658;50.920;12.238;2023-12-14T14:52:01;4.00;99.90
21001;DHT22;10658;50.920;12.238;2023-12-14T14:56:02;4.00;99.90
21001;DHT22;10658;50.920;12.238;2023-12-14T15:00:04;4.00;99.90
21001;DHT22;10658;50.920;12.238;2023-12-14T15:04:05;4.00;99.90
21001;DHT22;10658;50.920;12.238;2023-12-14T15:08:06;4.00;99.90
21001;DHT22;10658;50.920;12.238;2023-12-14T15:12:07;4.00;99.90
21001;DHT22;10658;50.920;12.238;2023-12-14T15:16:09;4.00;99.90
21001;DHT22;10658;50.920;12.238;2023-12-14T15:20:27;4.00;99.90
21001;DHT22;10658;50.920;12.238;2023-12-14T15:24:28;4.00;99.90
21001;DHT22;10658;50.920;12.238;2023-12-14T15:28:29;3.90;99.90
21001;DHT22;10658;50.920;12.238;2023-12-14T15:32:30;3.80;99.90
21001;DHT22;10658;50.920;12.238;2023-12-14T15:36:31;3.90;99.90
21001;DHT22;10658;50.920;12.238;2023-12-14T15:40:34;3.80;99.90
21001;DHT22;10658;50.920;12.238;2023-12-14T15:44:39;3.80;99.90
21001;DHT22;10658;50.920;12.238;2023-12-14T15:48:40;3.80;99.90
21001;DHT22;10658;50.920;12.238;2023-12-14T15:52:42;3.80;99.90
21001;DHT22;10658;50.920;12.238;2023-12-14T15:56:43;3.80;99.90
21001;DHT22;10658;50.920;12.238;2023-12-14T16:00:44;3.70;99.90
21001;DHT22;10658;50.920;12.238;2023-12-14T16:04:55;3.70;99.90
21001;DHT22;10658;50.920;12.238;2023-12-14T16:09:01;3.70;99.90
21001;DHT22;10658;50.920;12.238;2023-12-14T16:13:04;3.70;99.90
21001;DHT22;10658;50.920;12.238;2023-12-14T16:17:05;3.80;99.90
21001;DHT22;10658;50.920;12.238;2023-12-14T16:21:07;3.70;99.90
21001;DHT22;10658;50.920;12.238;2023-12-14T16:25:10;3.70;99.90
21001;DHT22;10658;50.920;12.238;2023-12-14T16:29:11;3.60;99.90
21001;DHT22;10658;50.920;12.238;2023-12-14T16:33:12;3.60;99.90
21001;DHT22;10658;50.920;12.238;2023-12-14T16:37:17;3.60;99.90
21001;DHT22;10658;50.920;12.238;2023-12-14T16:41:21;3.60;99.90
21001;DHT22;10658;50.920;12.238;2023-12-14T16:45:22;3.50;99.90
21001;DHT22;10658;50.920;12.238;2023-12-14T16:49:24;3.50;99.90
21001;DHT22;10658;50.920;12.238;2023-12-14T16:53:25;3.40;99.90
21001;DHT22;10658;50.920;12.238;2023-12-14T16:57:26;3.40;99.90
21001;DHT22;10658;50.920;12.238;2023-12-14T17:01:27;3.50;99.90
21001;DHT22;10658;50.920;12.238;2023-12-14T17:05:28;3.50;99.90
21001;DHT22;10658;50.920;12.238;2023-12-14T17:09:29;3.60;99.90
21001;DHT22;10658;50.920;12.238;2023-12-14T17:13:31;3.60;99.90
21001;DHT22;10658;50.920;12.238;2023-12-14T17:17:36;3.60;99.90
21001;DHT22;10658;50.920;12.238;2023-12-14T17:21:37;3.60;99.90
21001;DHT22;10658;50.920;12.238;2023-12-14T17:25:38;3.50;99.90
21001;DHT22;10658;50.920;12.238;2023-12-14T17:29:39;3.50;99.90
21001;DHT22;10658;50.920;12.238;2023-12-14T17:33:40;3.50;99.90
21001;DHT22;10658;50.920;12.238;2023-12-14T17:37:41;3.60;99.90
21001;DHT22;10658;50.920;12.238;2023-12-14T17:41:45;3.50;99.90
21001;DHT22;10658;50.920;12.238;2023-12-14T17:45:47;3.50;99.90
21001;DHT22;10658;50.920;12.238;2023-12-14T17:49:48;3.60;99.90
21001;DHT22;10658;50.920;12.238;2023-12-14T17:53:49;3.60;99.90
21001;DHT22;10658;50.920;12.238;2023-12-14T17:57:50;3.60;99.90
21001;DHT22;10658;50.920;12.238;2023-12-14T18:01:51;3.60;99.90
21001;DHT22;10658;50.920;12.238;2023-12-14T18:05:52;3.50;99.90
21001;DHT22;10658;50.920;12.238;2023-12-14T18:09:53;3.60;99.90
21001;DHT22;10658;50.920;12.238;2023-12-14T18:13:54;3.50;99.90
21001;DHT22;10658;50.920;12.238;2023-12-14T18:17:55;3.50;99.90
21001;DHT22;10658;50.920;12.238;2023-12-14T18:21:56;3.50;99.90
21001;DHT22;10658;50.920;12.238;2023-12-14T18:25:57;3.50;99.90
21001;DHT22;10658;50.920;12.238;2023-12-14T18:29:59;3.50;99.90
21001;DHT22;10658;50.920;12.238;2023-12-14T18:34:00;3.50;99.90
21001;DHT22;10658;50.920;12.238;2023-12-14T18:38:01;3.50;99.90
21001;DHT22;10658;50.920;12.238;2023-12-14T18:42:02;3.50;99.90
21001;DHT22;10658;50.920;12.238;2023-12-14T18:46:06;3.60;99.90
21001;DHT22;10658;50.920;12.238;2023-12-14T18:50:07;3.60;99.90
21001;DHT22;10658;50.920;12.238;2023-12-14T18:54:08;3.60;99.90
21001;DHT22;10658;50.920;12.238;2023-12-14T18:58:12;3.60;99.90
21001;DHT22;10658;50.920;12.238;2023-12-14T19:02:13;3.50;99.90
21001;DHT22;10658;50.920;12.238;2023-12-14T19:06:14;3.60;99.90
21001;DHT22;10658;50.920;12.238;2023-12-14T19:10:24;3.60;99.90
21001;DHT22;10658;50.920;12.238;2023-12-14T19:14:26;3.60;99.90
21001;DHT22;10658;50.920;12.238;2023-12-14T19:18:27;3.60;99.90
21001;DHT22;10658;50.920;12.238;2023-12-14T19:22:28;3.60;99.90
21001;DHT22;10658;50.920;12.238;2023-12-14T19:26:32;3.60;99.90
21001;DHT22;10658;50.920;12.238;2023-12-14T19:30:33;3.60;99.90
21001;DHT22;10658;50.920;12.238;2023-12-14T19:34:34;3.60;99.90
21001;DHT22;10658;50.920;12.238;2023-12-14T19:38:35;3.60;99.90
21001;DHT22;10658;50.920;12.238;2023-12-14T19:42:36;3.60;99.90
21001;DHT22;10658;50.920;12.238;2023-12-14T19:46:37;3.70;99.90
21001;DHT22;10658;50.920;12.238;2023-12-14T19:50:38;3.70;99.90
21001;DHT22;10658;50.920;12.238;2023-12-14T19:54:40;3.80;99.90
21001;DHT22;10658;50.920;12.238;2023-12-14T19:58:44;3.70;99.90
21001;DHT22;10658;50.920;12.238;2023-12-14T20:02:51;3.70;99.90
21001;DHT22;10658;50.920;12.238;2023-12-14T20:06:54;3.70;99.90
21001;DHT22;10658;50.920;12.238;2023-12-14T20:10:55;3.70;99.90
21001;DHT22;10658;50.920;12.238;2023-12-14T20:14:56;3.80;99.90
21001;DHT22;10658;50.920;12.238;2023-12-14T20:18:57;3.80;99.90
21001;DHT22;10658;50.920;12.238;2023-12-14T20:23:02;3.70;99.90
21001;DHT22;10658;50.920;12.238;2023-12-14T20:27:04;3.80;99.90
21001;DHT22;10658;50.920;12.238;2023-12-14T20:31:05;3.70;99.90
21001;DHT22;10658;50.920;12.238;2023-12-14T20:35:07;3.70;99.90
21001;DHT22;10658;50.920;12.238;2023-12-14T20:39:08;3.80;99.90
21001;DHT22;10658;50.920;12.238;2023-12-14T20:43:09;3.80;99.90
21001;DHT22;10658;50.920;12.238;2023-12-14T20:47:10;3.80;99.90
21001;DHT22;10658;50.920;12.238;2023-12-14T20:51:11;3.80;99.90
21001;DHT22;10658;50.920;12.238;2023-12-14T20:55:13;3.80;99.90
21001;DHT22;10658;50.920;12.238;2023-12-14T20:59:14;3.70;99.90
21001;DHT22;10658;50.920;12.238;2023-12-14T21:03:15;3.70;99.90
21001;DHT22;10658;50.920;12.238;2023-12-14T21:07:17;3.70;99.90
21001;DHT22;10658;50.920;12.238;2023-12-14T21:11:18;3.70;99.90
21001;DHT22;10658;50.920;12.238;2023-12-14T21:15:20;3.70;99.90
21001;DHT22;10658;50.920;12.238;2023-12-14T21:19:22;3.70;99.90
21001;DHT22;10658;50.920;12.238;2023-12-14T21:23:23;3.70;99.90
21001;DHT22;10658;50.920;12.238;2023-12-14T21:27:24;3.70;99.90
21001;DHT22;10658;50.920;12.238;2023-12-14T21:31:43;3.70;99.90
21001;DHT22;10658;50.920;12.238;2023-12-14T21:35:44;3.70;99.90
21001;DHT22;10658;50.920;12.238;2023-12-14T21:39:45;3.70;99.90
21001;DHT22;10658;50.920;12.238;2023-12-14T21:43:47;3.70;99.90
21001;DHT22;10658;50.920;12.238;2023-12-14T21:47:49;3.70;99.90
21001;DHT22;10658;50.920;12.238;2023-12-14T21:51:49;3.70;99.90
21001;DHT22;10658;50.920;12.238;2023-12-14T21:55:50;3.70;99.90
21001;DHT22;10658;50.920;12.238;2023-12-14T21:59:51;3.70;99.90
21001;DHT22;10658;50.920;12.238;2023-12-14T22:03:53;3.70;99.90
21001;DHT22;10658;50.920;12.238;2023-12-14T22:07:53;3.60;99.90
21001;DHT22;10658;50.920;12.238;2023-12-14T22:11:54;3.60;99.90
21001;DHT22;10658;50.920;12.238;2023-12-14T22:15:55;3.70;99.90
21001;DHT22;10658;50.920;12.238;2023-12-14T22:19:56;3.60;99.90
21001;DHT22;10658;50.920;12.238;2023-12-14T22:23:57;3.60;99.90
21001;DHT22;10658;50.920;12.238;2023-12-14T22:32:51;3.60;99.90
21001;DHT22;10658;50.920;12.238;2023-12-14T22:36:53;3.60;99.90
21001;DHT22;10658;50.920;12.238;2023-12-14T22:40:54;3.60;99.90
21001;DHT22;10658;50.920;12.238;2023-12-14T22:44:55;3.60;99.90
21001;DHT22;10658;50.920;12.238;2023-12-14T22:48:56;3.60;99.90
21001;DHT22;10658;50.920;12.238;2023-12-14T22:52:57;3.60;99.90
21001;DHT22;10658;50.920;12.238;2023-12-14T22:56:58;3.60;99.90
21001;DHT22;10658;50.920;12.238;2023-12-14T23:00:58;3.60;99.90
21001;DHT22;10658;50.920;12.238;2023-12-14T23:04:59;3.50;99.90
21001;DHT22;10658;50.920;12.238;2023-12-14T23:09:03;3.50;99.90
21001;DHT22;10658;50.920;12.238;2023-12-14T23:13:04;3.60;99.90
21001;DHT22;10658;50.920;12.238;2023-12-14T23:17:05;3.50;99.90
21001;DHT22;10658;50.920;12.238;2023-12-14T23:21:07;3.50;99.90
21001;DHT22;10658;50.920;12.238;2023-12-14T23:25:08;3.50;99.90
21001;DHT22;10658;50.920;12.238;2023-12-14T23:29:09;3.50;99.90
21001;DHT22;10658;50.920;12.238;2023-12-14T23:33:10;3.40;99.90
21001;DHT22;10658;50.920;12.238;2023-12-14T23:37:11;3.50;99.90
21001;DHT22;10658;50.920;12.238;2023-12-14T23:41:11;3.40;99.90
21001;DHT22;10658;50.920;12.238;2023-12-14T23:45:12;3.40;99.90
21001;DHT22;10658;50.920;12.238;2023-12-14T23:49:14;3.40;99.90
21001;DHT22;10658;50.920;12.238;2023-12-14T23:53:15;3.40;99.90
21001;DHT22;10658;50.920;12.238;2023-12-14T23:57:16;3.40;99.90
